sensor_id;sensor_type;location;lat;lon;timestamp;pressure;altitude;pressure_sealevel;temperature;humidity
75629;BME280;64213;46.452;16.994;2022-12-17T00:06:45;99612.34;;;1.23;93.75
75629;BME280;64213;46.452;16.994;2022-12-17T00:10:07;99602.75;;;1.24;94.21
75629;BME280;64213;46.452;16.994;2022-12-17T00:13:28;99575.06;;;1.21;94.15
75629;BME280;64213;46.452;16.994;2022-12-17T00:16:49;99557.06;;;1.15;94.45
75629;BME280;64213;46.452;16.994;2022-12-17T00:20:10;99553.63;;;1.13;94.50
75629;BME280;64213;46.452;16.994;2022-12-17T00:23:31;99566.66;;;1.13;94.35
75629;BME280;64213;46.452;16.994;2022-12-17T00:26:52;99577.94;;;1.13;94.08
75629;BME280;64213;46.452;16.994;2022-12-17T00:30:12;99599.59;;;1.14;93.57
75629;BME280;64213;46.452;16.994;2022-12-17T00:33:33;99636.16;;;1.12;93.88
75629;BME280;64213;46.452;16.994;2022-12-17T00:36:54;99640.50;;;1.12;93.45
75629;BME280;64213;46.452;16.994;2022-12-17T00:40:16;99652.72;;;1.10;93.42
75629;BME280;64213;46.452;16.994;2022-12-17T00:43:36;99671.03;;;1.07;93.69
75629;BME280;64213;46.452;16.994;2022-12-17T00:46:57;99680.53;;;1.08;93.56
75629;BME280;64213;46.452;16.994;2022-12-17T00:50:18;99696.25;;;1.06;93.17
75629;BME280;64213;46.452;16.994;2022-12-17T00:53:39;99710.13;;;1.05;92.92
75629;BME280;64213;46.452;16.994;2022-12-17T00:56:59;99731.78;;;1.07;93.30
75629;BME280;64213;46.452;16.994;2022-12-17T01:00:20;99721.47;;;1.04;93.26
75629;BME280;64213;46.452;16.994;2022-12-17T01:03:41;99725.91;;;1.01;93.00
75629;BME280;64213;46.452;16.994;2022-12-17T01:07:02;99718.94;;;1.01;93.00
75629;BME280;64213;46.452;16.994;2022-12-17T01:10:22;99730.22;;;1.02;93.10
75629;BME280;64213;46.452;16.994;2022-12-17T01:13:43;99746.75;;;1.01;93.14
75629;BME280;64213;46.452;16.994;2022-12-17T01:17:04;99749.41;;;0.99;92.85
75629;BME280;64213;46.452;16.994;2022-12-17T01:20:25;99757.97;;;1.03;92.93
75629;BME280;64213;46.452;16.994;2022-12-17T01:23:46;99771.94;;;1.00;92.72
75629;BME280;64213;46.452;16.994;2022-12-17T01:27:07;99771.13;;;0.98;92.77
75629;BME280;64213;46.452;16.994;2022-12-17T01:30:28;99773.72;;;0.98;92.63
75629;BME280;64213;46.452;16.994;2022-12-17T01:33:49;99769.44;;;0.97;92.82
75629;BME280;64213;46.452;16.994;2022-12-17T01:37:10;99767.72;;;0.96;92.90
75629;BME280;64213;46.452;16.994;2022-12-17T01:40:31;99772.84;;;0.99;93.68
75629;BME280;64213;46.452;16.994;2022-12-17T01:43:52;99773.72;;;0.98;93.06
75629;BME280;64213;46.452;16.994;2022-12-17T01:47:12;99772.16;;;0.92;92.77
75629;BME280;64213;46.452;16.994;2022-12-17T01:50:37;99767.91;;;0.90;92.83
75629;BME280;64213;46.452;16.994;2022-12-17T01:53:58;99769.59;;;0.91;92.45
75629;BME280;64213;46.452;16.994;2022-12-17T01:57:34;99780.94;;;0.90;92.50
75629;BME280;64213;46.452;16.994;2022-12-17T02:00:55;99781.81;;;0.89;92.51
75629;BME280;64213;46.452;16.994;2022-12-17T02:04:16;99792.38;;;0.83;92.62
75629;BME280;64213;46.452;16.994;2022-12-17T02:08:42;99795.06;;;0.80;92.11
75629;BME280;64213;46.452;16.994;2022-12-17T02:12:03;99811.59;;;0.79;92.16
75629;BME280;64213;46.452;16.994;2022-12-17T02:15:33;99815.91;;;0.80;92.03
75629;BME280;64213;46.452;16.994;2022-12-17T02:19:04;99811.69;;;0.76;91.90
75629;BME280;64213;46.452;16.994;2022-12-17T02:26:15;99814.25;;;0.77;92.40
75629;BME280;64213;46.452;16.994;2022-12-17T02:29:40;99823.84;;;0.75;91.92
75629;BME280;64213;46.452;16.994;2022-12-17T02:33:03;99837.78;;;0.74;91.77
75629;BME280;64213;46.452;16.994;2022-12-17T02:36:24;99841.16;;;0.76;91.71
75629;BME280;64213;46.452;16.994;2022-12-17T02:39:45;99850.72;;;0.76;91.82
75629;BME280;64213;46.452;16.994;2022-12-17T02:43:07;99852.50;;;0.75;92.14
75629;BME280;64213;46.452;16.994;2022-12-17T02:46:29;99856.03;;;0.73;92.06
75629;BME280;64213;46.452;16.994;2022-12-17T02:49:51;99872.41;;;0.76;91.94
75629;BME280;64213;46.452;16.994;2022-12-17T02:53:11;99879.44;;;0.73;92.28
75629;BME280;64213;46.452;16.994;2022-12-17T03:04:04;99886.34;;;0.75;93.01
75629;BME280;64213;46.452;16.994;2022-12-17T03:07:25;99878.59;;;0.74;92.93
75629;BME280;64213;46.452;16.994;2022-12-17T03:10:46;99883.81;;;0.72;92.95
75629;BME280;64213;46.452;16.994;2022-12-17T03:18:13;99902.87;;;0.73;92.44
75629;BME280;64213;46.452;16.994;2022-12-17T03:21:34;99920.31;;;0.71;92.18
75629;BME280;64213;46.452;16.994;2022-12-17T03:24:55;99911.59;;;0.72;92.08
75629;BME280;64213;46.452;16.994;2022-12-17T03:28:15;99918.56;;;0.69;92.20
75629;BME280;64213;46.452;16.994;2022-12-17T03:31:36;99915.09;;;0.71;92.56
75629;BME280;64213;46.452;16.994;2022-12-17T03:34:57;99915.19;;;0.67;92.34
75629;BME280;64213;46.452;16.994;2022-12-17T03:38:17;99915.97;;;0.69;92.17
75629;BME280;64213;46.452;16.994;2022-12-17T03:41:38;99923.84;;;0.66;92.06
75629;BME280;64213;46.452;16.994;2022-12-17T03:44:59;99921.34;;;0.63;92.32
75629;BME280;64213;46.452;16.994;2022-12-17T03:48:19;99929.16;;;0.63;92.21
75629;BME280;64213;46.452;16.994;2022-12-17T03:51:40;99927.38;;;0.65;92.35
75629;BME280;64213;46.452;16.994;2022-12-17T03:55:01;99929.16;;;0.63;92.10
75629;BME280;64213;46.452;16.994;2022-12-17T03:58:22;99924.91;;;0.61;92.23
75629;BME280;64213;46.452;16.994;2022-12-17T04:01:42;99924.97;;;0.58;92.23
75629;BME280;64213;46.452;16.994;2022-12-17T04:05:03;99922.38;;;0.56;91.86
75629;BME280;64213;46.452;16.994;2022-12-17T04:08:26;99914.59;;;0.56;92.20
75629;BME280;64213;46.452;16.994;2022-12-17T04:11:48;99919.88;;;0.53;91.79
75629;BME280;64213;46.452;16.994;2022-12-17T04:15:09;99917.25;;;0.53;91.68
75629;BME280;64213;46.452;16.994;2022-12-17T04:18:30;99925.16;;;0.50;91.52
75629;BME280;64213;46.452;16.994;2022-12-17T04:21:51;99926.00;;;0.51;91.48
75629;BME280;64213;46.452;16.994;2022-12-17T04:25:11;99933.72;;;0.54;91.46
75629;BME280;64213;46.452;16.994;2022-12-17T04:28:32;99953.78;;;0.50;91.14
75629;BME280;64213;46.452;16.994;2022-12-17T04:36:09;99977.09;;;0.55;91.01
75629;BME280;64213;46.452;16.994;2022-12-17T04:49:50;99996.31;;;0.47;89.98
75629;BME280;64213;46.452;16.994;2022-12-17T04:53:11;99990.31;;;0.45;90.39
75629;BME280;64213;46.452;16.994;2022-12-17T04:56:31;100012.84;;;0.46;90.06
75629;BME280;64213;46.452;16.994;2022-12-17T04:59:52;100025.00;;;0.46;90.10
75629;BME280;64213;46.452;16.994;2022-12-17T05:07:10;100039.75;;;0.45;89.57
75629;BME280;64213;46.452;16.994;2022-12-17T05:10:30;100047.59;;;0.44;89.63
75629;BME280;64213;46.452;16.994;2022-12-17T05:13:51;100051.09;;;0.43;89.23
75629;BME280;64213;46.452;16.994;2022-12-17T05:17:12;100070.13;;;0.45;89.54
75629;BME280;64213;46.452;16.994;2022-12-17T05:20:33;100066.63;;;0.46;88.93
75629;BME280;64213;46.452;16.994;2022-12-17T05:23:53;100073.59;;;0.44;89.13
75629;BME280;64213;46.452;16.994;2022-12-17T05:27:14;100077.09;;;0.43;89.29
75629;BME280;64213;46.452;16.994;2022-12-17T05:30:35;100080.59;;;0.42;89.04
75629;BME280;64213;46.452;16.994;2022-12-17T05:33:56;100089.22;;;0.44;88.75
75629;BME280;64213;46.452;16.994;2022-12-17T05:37:16;100086.62;;;0.44;88.63
75629;BME280;64213;46.452;16.994;2022-12-17T05:40:37;100101.34;;;0.45;88.84
75629;BME280;64213;46.452;16.994;2022-12-17T05:44:07;100104.75;;;0.47;88.62
75629;BME280;64213;46.452;16.994;2022-12-17T05:47:27;100111.78;;;0.43;88.31
75629;BME280;64213;46.452;16.994;2022-12-17T05:50:49;100121.41;;;0.40;88.09
75629;BME280;64213;46.452;16.994;2022-12-17T05:54:10;100123.09;;;0.42;88.02
75629;BME280;64213;46.452;16.994;2022-12-17T06:01:38;100140.47;;;0.40;87.54
75629;BME280;64213;46.452;16.994;2022-12-17T06:04:59;100150.94;;;0.39;88.12
75629;BME280;64213;46.452;16.994;2022-12-17T06:08:20;100150.88;;;0.42;88.16
75629;BME280;64213;46.452;16.994;2022-12-17T06:11:41;100157.00;;;0.38;87.89
75629;BME280;64213;46.452;16.994;2022-12-17T06:19:03;100175.19;;;0.39;87.51
75629;BME280;64213;46.452;16.994;2022-12-17T06:22:24;100183.84;;;0.40;87.92
75629;BME280;64213;46.452;16.994;2022-12-17T06:25:45;100187.31;;;0.40;88.20
75629;BME280;64213;46.452;16.994;2022-12-17T06:29:05;100192.50;;;0.40;88.09
75629;BME280;64213;46.452;16.994;2022-12-17T06:32:26;100203.78;;;0.41;87.58
75629;BME280;64213;46.452;16.994;2022-12-17T06:35:47;100214.19;;;0.41;87.52
75629;BME280;64213;46.452;16.994;2022-12-17T06:39:26;100219.38;;;0.41;87.37
75629;BME280;64213;46.452;16.994;2022-12-17T06:42:52;100222.81;;;0.43;88.03
75629;BME280;64213;46.452;16.994;2022-12-17T06:46:13;100220.22;;;0.41;87.34
75629;BME280;64213;46.452;16.994;2022-12-17T06:49:33;100221.97;;;0.42;87.18
75629;BME280;64213;46.452;16.994;2022-12-17T06:53:04;100227.13;;;0.45;87.19
75629;BME280;64213;46.452;16.994;2022-12-17T06:56:26;100236.72;;;0.42;86.65
75629;BME280;64213;46.452;16.994;2022-12-17T06:59:46;100241.03;;;0.43;87.50
75629;BME280;64213;46.452;16.994;2022-12-17T07:03:09;100242.75;;;0.44;87.11
75629;BME280;64213;46.452;16.994;2022-12-17T07:06:31;100249.63;;;0.46;87.60
75629;BME280;64213;46.452;16.994;2022-12-17T07:09:52;100255.69;;;0.47;87.33
75629;BME280;64213;46.452;16.994;2022-12-17T07:13:15;100257.28;;;0.54;87.65
75629;BME280;64213;46.452;16.994;2022-12-17T07:16:36;100255.53;;;0.56;87.08
75629;BME280;64213;46.452;16.994;2022-12-17T07:19:57;100264.16;;;0.58;86.89
75629;BME280;64213;46.452;16.994;2022-12-17T07:23:17;100277.06;;;0.63;86.55
75629;BME280;64213;46.452;16.994;2022-12-17T07:26:39;100281.31;;;0.68;86.17
75629;BME280;64213;46.452;16.994;2022-12-17T07:29:59;100288.28;;;0.66;85.92
75629;BME280;64213;46.452;16.994;2022-12-17T07:33:20;100283.06;;;0.68;86.03
75629;BME280;64213;46.452;16.994;2022-12-17T07:36:41;100287.25;;;0.75;86.27
75629;BME280;64213;46.452;16.994;2022-12-17T07:40:02;100286.41;;;0.75;85.99
75629;BME280;64213;46.452;16.994;2022-12-17T07:43:23;100299.31;;;0.81;86.26
75629;BME280;64213;46.452;16.994;2022-12-17T07:46:51;100307.97;;;0.80;85.73
75629;BME280;64213;46.452;16.994;2022-12-17T07:50:13;100317.47;;;0.82;85.85
75629;BME280;64213;46.452;16.994;2022-12-17T07:53:34;100314.87;;;0.82;85.87
75629;BME280;64213;46.452;16.994;2022-12-17T07:56:54;100321.87;;;0.80;85.16
75629;BME280;64213;46.452;16.994;2022-12-17T08:00:15;100314.09;;;0.79;85.27
75629;BME280;64213;46.452;16.994;2022-12-17T08:03:36;100317.34;;;0.88;84.98
75629;BME280;64213;46.452;16.994;2022-12-17T08:06:56;100338.06;;;0.96;85.06
75629;BME280;64213;46.452;16.994;2022-12-17T08:10:17;100350.25;;;0.94;84.62
75629;BME280;64213;46.452;16.994;2022-12-17T08:13:38;100349.22;;;1.03;84.32
75629;BME280;64213;46.452;16.994;2022-12-17T08:16:58;100363.81;;;1.10;84.01
75629;BME280;64213;46.452;16.994;2022-12-17T08:20:19;100362.91;;;1.12;84.19
75629;BME280;64213;46.452;16.994;2022-12-17T08:23:40;100368.00;;;1.17;84.17
75629;BME280;64213;46.452;16.994;2022-12-17T08:27:00;100377.62;;;1.15;83.99
75629;BME280;64213;46.452;16.994;2022-12-17T08:30:21;100380.00;;;1.26;84.12
75629;BME280;64213;46.452;16.994;2022-12-17T08:33:42;100377.34;;;1.29;83.78
75629;BME280;64213;46.452;16.994;2022-12-17T08:37:08;100387.50;;;1.41;83.56
75629;BME280;64213;46.452;16.994;2022-12-17T08:40:29;100383.41;;;1.70;83.48
75629;BME280;64213;46.452;16.994;2022-12-17T08:43:49;100385.06;;;1.74;82.73
75629;BME280;64213;46.452;16.994;2022-12-17T08:47:10;100391.97;;;1.75;83.35
75629;BME280;64213;46.452;16.994;2022-12-17T08:50:31;100415.78;;;1.59;83.26
75629;BME280;64213;46.452;16.994;2022-12-17T08:53:52;100421.69;;;1.68;83.30
75629;BME280;64213;46.452;16.994;2022-12-17T08:57:12;100433.91;;;1.66;82.88
75629;BME280;64213;46.452;16.994;2022-12-17T09:00:33;100433.91;;;1.66;83.38
75629;BME280;64213;46.452;16.994;2022-12-17T09:03:57;100449.59;;;1.62;82.76
75629;BME280;64213;46.452;16.994;2022-12-17T09:07:18;100447.37;;;1.86;83.47
75629;BME280;64213;46.452;16.994;2022-12-17T09:10:39;100446.28;;;1.96;82.97
75629;BME280;64213;46.452;16.994;2022-12-17T09:14:07;100441.84;;;2.01;82.33
75629;BME280;64213;46.452;16.994;2022-12-17T09:17:28;100446.00;;;2.08;82.34
75629;BME280;64213;46.452;16.994;2022-12-17T09:20:54;100445.09;;;2.09;81.29
75629;BME280;64213;46.452;16.994;2022-12-17T09:24:15;100437.25;;;2.11;81.04
75629;BME280;64213;46.452;16.994;2022-12-17T09:27:36;100430.31;;;2.10;80.32
75629;BME280;64213;46.452;16.994;2022-12-17T09:30:59;100459.12;;;2.05;80.69
75629;BME280;64213;46.452;16.994;2022-12-17T09:34:20;100479.41;;;1.91;80.84
75629;BME280;64213;46.452;16.994;2022-12-17T09:37:40;100475.25;;;1.84;80.84
75629;BME280;64213;46.452;16.994;2022-12-17T09:48:58;100495.91;;;1.93;81.25
75629;BME280;64213;46.452;16.994;2022-12-17T09:52:37;100491.81;;;1.81;81.59
75629;BME280;64213;46.452;16.994;2022-12-17T09:55:58;100499.66;;;1.80;81.20
75629;BME280;64213;46.452;16.994;2022-12-17T09:59:28;100506.47;;;1.87;81.61
75629;BME280;64213;46.452;16.994;2022-12-17T10:02:49;100520.66;;;1.72;81.57
75629;BME280;64213;46.452;16.994;2022-12-17T10:06:14;100525.09;;;1.70;81.81
75629;BME280;64213;46.452;16.994;2022-12-17T10:09:36;100518.06;;;1.74;81.88
75629;BME280;64213;46.452;16.994;2022-12-17T10:12:57;100524.16;;;1.73;81.96
75629;BME280;64213;46.452;16.994;2022-12-17T10:16:28;100531.09;;;1.74;82.56
75629;BME280;64213;46.452;16.994;2022-12-17T10:19:53;100529.25;;;1.79;82.23
75629;BME280;64213;46.452;16.994;2022-12-17T10:23:25;100538.37;;;2.00;82.36
75629;BME280;64213;46.452;16.994;2022-12-17T10:26:47;100543.22;;;2.18;81.88
75629;BME280;64213;46.452;16.994;2022-12-17T10:30:14;100555.53;;;2.12;81.80
75629;BME280;64213;46.452;16.994;2022-12-17T10:33:39;100556.41;;;2.10;81.84
75629;BME280;64213;46.452;16.994;2022-12-17T10:37:00;100559.00;;;2.12;81.69
75629;BME280;64213;46.452;16.994;2022-12-17T10:40:27;100566.16;;;2.02;81.75
75629;BME280;64213;46.452;16.994;2022-12-17T10:43:48;100567.13;;;1.98;81.16
75629;BME280;64213;46.452;16.994;2022-12-17T10:47:16;100566.06;;;2.07;81.08
75629;BME280;64213;46.452;16.994;2022-12-17T10:50:40;100568.53;;;2.13;81.09
75629;BME280;64213;46.452;16.994;2022-12-17T10:54:08;100567.00;;;2.04;81.01
75629;BME280;64213;46.452;16.994;2022-12-17T10:57:37;100566.09;;;2.05;80.82
75629;BME280;64213;46.452;16.994;2022-12-17T11:01:02;100567.56;;;2.19;80.70
75629;BME280;64213;46.452;16.994;2022-12-17T11:04:31;100573.56;;;2.24;80.62
75629;BME280;64213;46.452;16.994;2022-12-17T11:07:52;100576.91;;;2.29;80.54
75629;BME280;64213;46.452;16.994;2022-12-17T11:11:27;100569.84;;;2.34;80.77
75629;BME280;64213;46.452;16.994;2022-12-17T11:14:51;100563.63;;;2.40;80.52
75629;BME280;64213;46.452;16.994;2022-12-17T11:18:19;100568.22;;;2.67;80.03
75629;BME280;64213;46.452;16.994;2022-12-17T11:22:28;100578.22;;;2.48;80.24
75629;BME280;64213;46.452;16.994;2022-12-17T11:25:32;100582.50;;;2.52;80.01
75629;BME280;64213;46.452;16.994;2022-12-17T11:28:58;100579.69;;;2.62;78.92
75629;BME280;64213;46.452;16.994;2022-12-17T11:32:44;100575.31;;;2.62;78.40
75629;BME280;64213;46.452;16.994;2022-12-17T11:36:21;100569.13;;;2.65;78.55
75629;BME280;64213;46.452;16.994;2022-12-17T11:39:53;100560.81;;;2.86;78.43
75629;BME280;64213;46.452;16.994;2022-12-17T11:47:41;100579.00;;;2.91;78.59
75629;BME280;64213;46.452;16.994;2022-12-17T11:50:57;100573.50;;;3.01;78.37
75629;BME280;64213;46.452;16.994;2022-12-17T11:58:03;100574.53;;;3.63;76.11
75629;BME280;64213;46.452;16.994;2022-12-17T12:01:52;100572.78;;;3.94;75.45
75629;BME280;64213;46.452;16.994;2022-12-17T12:05:18;100580.69;;;3.62;75.75
75629;BME280;64213;46.452;16.994;2022-12-17T12:12:44;100599.34;;;3.14;76.91
75629;BME280;64213;46.452;16.994;2022-12-17T12:16:14;100606.69;;;3.34;77.26
75629;BME280;64213;46.452;16.994;2022-12-17T12:19:53;100605.97;;;3.27;77.63
75629;BME280;64213;46.452;16.994;2022-12-17T12:23:33;100620.47;;;3.40;77.12
75629;BME280;64213;46.452;16.994;2022-12-17T12:34:19;100631.69;;;3.45;76.48
75629;BME280;64213;46.452;16.994;2022-12-17T12:37:41;100643.84;;;3.46;76.77
75629;BME280;64213;46.452;16.994;2022-12-17T12:41:22;100641.38;;;3.42;77.06
75629;BME280;64213;46.452;16.994;2022-12-17T12:52:26;100659.41;;;3.15;77.75
75629;BME280;64213;46.452;16.994;2022-12-17T12:55:47;100663.56;;;3.24;77.21
75629;BME280;64213;46.452;16.994;2022-12-17T12:59:11;100672.25;;;3.26;77.04
75629;BME280;64213;46.452;16.994;2022-12-17T13:02:31;100665.28;;;3.25;77.53
75629;BME280;64213;46.452;16.994;2022-12-17T13:05:52;100678.34;;;3.26;77.14
75629;BME280;64213;46.452;16.994;2022-12-17T13:09:04;100680.03;;;3.28;77.21
75629;BME280;64213;46.452;16.994;2022-12-17T13:15:16;100682.34;;;3.04;77.33
75629;BME280;64213;46.452;16.994;2022-12-17T13:18:33;100681.41;;;3.07;77.74
75629;BME280;64213;46.452;16.994;2022-12-17T13:21:36;100689.34;;;3.02;77.43
75629;BME280;64213;46.452;16.994;2022-12-17T13:24:38;100691.16;;;2.98;77.54
75629;BME280;64213;46.452;16.994;2022-12-17T13:27:41;100697.16;;;3.03;77.43
75629;BME280;64213;46.452;16.994;2022-12-17T13:30:44;100709.66;;;2.91;77.72
75629;BME280;64213;46.452;16.994;2022-12-17T13:34:04;100714.03;;;2.89;77.80
75629;BME280;64213;46.452;16.994;2022-12-17T13:37:11;100715.00;;;2.85;78.14
75629;BME280;64213;46.452;16.994;2022-12-17T13:43:27;100734.28;;;2.77;77.72
75629;BME280;64213;46.452;16.994;2022-12-17T13:46:42;100744.72;;;2.79;78.34
75629;BME280;64213;46.452;16.994;2022-12-17T13:49:50;100745.75;;;2.70;78.36
75629;BME280;64213;46.452;16.994;2022-12-17T13:53:14;100750.97;;;2.72;78.43
75629;BME280;64213;46.452;16.994;2022-12-17T13:56:21;100767.50;;;2.71;78.75
75629;BME280;64213;46.452;16.994;2022-12-17T13:59:23;100773.53;;;2.76;78.94
75629;BME280;64213;46.452;16.994;2022-12-17T14:02:31;100781.53;;;2.67;79.12
75629;BME280;64213;46.452;16.994;2022-12-17T14:05:35;100785.13;;;2.61;79.15
75629;BME280;64213;46.452;16.994;2022-12-17T14:08:39;100801.69;;;2.60;79.63
75629;BME280;64213;46.452;16.994;2022-12-17T14:11:41;100811.25;;;2.61;79.10
75629;BME280;64213;46.452;16.994;2022-12-17T14:15:05;100811.41;;;2.52;79.54
75629;BME280;64213;46.452;16.994;2022-12-17T14:18:17;100809.69;;;2.51;79.61
75629;BME280;64213;46.452;16.994;2022-12-17T14:21:21;100807.94;;;2.51;79.33
75629;BME280;64213;46.452;16.994;2022-12-17T14:24:25;100821.03;;;2.50;79.49
75629;BME280;64213;46.452;16.994;2022-12-17T14:27:34;100841.19;;;2.43;78.50
75629;BME280;64213;46.452;16.994;2022-12-17T14:30:41;100833.56;;;2.29;77.73
75629;BME280;64213;46.452;16.994;2022-12-17T14:34:04;100839.72;;;2.27;77.84
75629;BME280;64213;46.452;16.994;2022-12-17T14:37:21;100842.50;;;2.16;77.84
75629;BME280;64213;46.452;16.994;2022-12-17T14:40:25;100844.28;;;2.14;78.31
75629;BME280;64213;46.452;16.994;2022-12-17T14:43:28;100846.91;;;2.13;78.91
75629;BME280;64213;46.452;16.994;2022-12-17T14:46:32;100846.97;;;2.09;78.90
75629;BME280;64213;46.452;16.994;2022-12-17T14:49:36;100860.91;;;2.07;79.19
75629;BME280;64213;46.452;16.994;2022-12-17T14:52:44;100869.78;;;1.98;79.59
75629;BME280;64213;46.452;16.994;2022-12-17T14:55:51;100877.66;;;1.94;80.12
75629;BME280;64213;46.452;16.994;2022-12-17T14:58:56;100879.53;;;1.84;80.63
75629;BME280;64213;46.452;16.994;2022-12-17T15:02:14;100879.66;;;1.75;81.32
75629;BME280;64213;46.452;16.994;2022-12-17T15:05:19;100906.75;;;1.65;81.61
75629;BME280;64213;46.452;16.994;2022-12-17T15:08:21;100911.16;;;1.61;82.12
75629;BME280;64213;46.452;16.994;2022-12-17T15:11:23;100914.66;;;1.58;81.84
75629;BME280;64213;46.452;16.994;2022-12-17T15:14:26;100903.41;;;1.55;82.10
75629;BME280;64213;46.452;16.994;2022-12-17T15:17:28;100900.88;;;1.50;82.13
75629;BME280;64213;46.452;16.994;2022-12-17T15:20:30;100908.75;;;1.47;82.52
75629;BME280;64213;46.452;16.994;2022-12-17T15:23:32;100927.91;;;1.40;82.98
75629;BME280;64213;46.452;16.994;2022-12-17T15:26:34;100939.34;;;1.31;83.99
75629;BME280;64213;46.452;16.994;2022-12-17T15:29:37;100944.66;;;1.22;84.04
75629;BME280;64213;46.452;16.994;2022-12-17T15:32:39;100941.25;;;1.14;84.17
75629;BME280;64213;46.452;16.994;2022-12-17T15:35:41;100950.88;;;1.07;84.84
75629;BME280;64213;46.452;16.994;2022-12-17T15:38:44;100962.25;;;0.99;85.11
75629;BME280;64213;46.452;16.994;2022-12-17T15:41:47;100972.72;;;0.92;85.28
75629;BME280;64213;46.452;16.994;2022-12-17T15:45:08;100966.66;;;0.92;84.87
75629;BME280;64213;46.452;16.994;2022-12-17T15:48:13;100968.38;;;0.96;84.57
75629;BME280;64213;46.452;16.994;2022-12-17T15:51:17;100971.78;;;1.01;84.39
75629;BME280;64213;46.452;16.994;2022-12-17T15:54:21;100979.59;;;1.03;84.19
75629;BME280;64213;46.452;16.994;2022-12-17T15:57:24;100983.06;;;1.02;84.15
75629;BME280;64213;46.452;16.994;2022-12-17T16:00:26;100994.41;;;0.99;84.52
75629;BME280;64213;46.452;16.994;2022-12-17T16:03:28;100999.59;;;0.99;84.19
75629;BME280;64213;46.452;16.994;2022-12-17T16:06:31;101000.47;;;1.00;83.85
75629;BME280;64213;46.452;16.994;2022-12-17T16:09:34;100999.59;;;0.99;83.29
75629;BME280;64213;46.452;16.994;2022-12-17T16:12:36;101010.88;;;0.98;83.09
75629;BME280;64213;46.452;16.994;2022-12-17T16:15:39;101010.94;;;0.92;82.93
75629;BME280;64213;46.452;16.994;2022-12-17T16:18:41;101022.22;;;0.94;82.18
75629;BME280;64213;46.452;16.994;2022-12-17T16:21:45;101024.00;;;0.89;82.02
75629;BME280;64213;46.452;16.994;2022-12-17T16:24:49;101026.63;;;0.87;81.55
75629;BME280;64213;46.452;16.994;2022-12-17T16:27:53;101034.47;;;0.83;81.86
75629;BME280;64213;46.452;16.994;2022-12-17T16:31:03;101038.81;;;0.84;81.92
75629;BME280;64213;46.452;16.994;2022-12-17T16:34:09;101039.69;;;0.81;81.77
75629;BME280;64213;46.452;16.994;2022-12-17T16:37:12;101044.94;;;0.77;82.13
75629;BME280;64213;46.452;16.994;2022-12-17T16:40:14;101054.50;;;0.75;82.29
75629;BME280;64213;46.452;16.994;2022-12-17T16:43:17;101061.50;;;0.66;82.47
75629;BME280;64213;46.452;16.994;2022-12-17T16:46:30;101053.69;;;0.66;82.52
75629;BME280;64213;46.452;16.994;2022-12-17T16:49:33;101060.63;;;0.67;82.67
75629;BME280;64213;46.452;16.994;2022-12-17T16:52:35;101068.44;;;0.71;82.64
75629;BME280;64213;46.452;16.994;2022-12-17T16:55:42;101071.06;;;0.67;82.87
75629;BME280;64213;46.452;16.994;2022-12-17T16:58:45;101076.28;;;0.64;83.17
75629;BME280;64213;46.452;16.994;2022-12-17T17:01:49;101083.16;;;0.75;82.92
75629;BME280;64213;46.452;16.994;2022-12-17T17:04:52;101087.44;;;0.79;82.48
75629;BME280;64213;46.452;16.994;2022-12-17T17:07:54;101096.12;;;0.79;82.65
75629;BME280;64213;46.452;16.994;2022-12-17T17:10:57;101096.12;;;0.81;82.66
75629;BME280;64213;46.452;16.994;2022-12-17T17:14:09;101098.72;;;0.81;82.88
75629;BME280;64213;46.452;16.994;2022-12-17T17:17:11;101100.50;;;0.74;82.59
75629;BME280;64213;46.452;16.994;2022-12-17T17:20:14;101100.50;;;0.76;82.80
75629;BME280;64213;46.452;16.994;2022-12-17T17:23:16;101097.87;;;0.77;82.83
75629;BME280;64213;46.452;16.994;2022-12-17T17:26:19;101109.09;;;0.87;82.10
75629;BME280;64213;46.452;16.994;2022-12-17T17:29:22;101106.50;;;0.87;81.83
75629;BME280;64213;46.452;16.994;2022-12-17T17:32:24;101114.28;;;0.88;81.87
75629;BME280;64213;46.452;16.994;2022-12-17T17:35:26;101117.78;;;0.86;81.57
75629;BME280;64213;46.452;16.994;2022-12-17T17:38:31;101126.53;;;0.80;81.44
75629;BME280;64213;46.452;16.994;2022-12-17T17:41:35;101117.91;;;0.71;81.27
75629;BME280;64213;46.452;16.994;2022-12-17T17:44:37;101127.44;;;0.68;81.14
75629;BME280;64213;46.452;16.994;2022-12-17T17:47:39;101134.44;;;0.62;81.61
75629;BME280;64213;46.452;16.994;2022-12-17T17:50:41;101151.81;;;0.54;81.91
75629;BME280;64213;46.452;16.994;2022-12-17T17:53:45;101155.34;;;0.43;81.97
75629;BME280;64213;46.452;16.994;2022-12-17T17:56:48;101161.47;;;0.32;82.47
75629;BME280;64213;46.452;16.994;2022-12-17T17:59:50;101163.25;;;0.23;82.66
75629;BME280;64213;46.452;16.994;2022-12-17T18:02:53;101161.53;;;0.12;83.12
75629;BME280;64213;46.452;16.994;2022-12-17T18:06:00;101163.28;;;0.02;83.52
75629;BME280;64213;46.452;16.994;2022-12-17T18:09:03;101154.66;;;-0.06;83.79
75629;BME280;64213;46.452;16.994;2022-12-17T18:12:05;101158.13;;;-0.13;84.06
75629;BME280;64213;46.452;16.994;2022-12-17T18:15:27;101172.00;;;-0.17;84.47
75629;BME280;64213;46.452;16.994;2022-12-17T18:18:30;101178.09;;;-0.25;84.64
75629;BME280;64213;46.452;16.994;2022-12-17T18:21:33;101184.19;;;-0.32;85.18
75629;BME280;64213;46.452;16.994;2022-12-17T18:24:35;101197.19;;;-0.41;85.62
75629;BME280;64213;46.452;16.994;2022-12-17T18:27:37;101204.09;;;-0.49;85.98
75629;BME280;64213;46.452;16.994;2022-12-17T18:30:39;101205.84;;;-0.54;86.24
75629;BME280;64213;46.452;16.994;2022-12-17T18:33:44;101213.66;;;-0.54;86.44
75629;BME280;64213;46.452;16.994;2022-12-17T18:36:48;101218.81;;;-0.62;87.05
75629;BME280;64213;46.452;16.994;2022-12-17T18:39:51;101217.94;;;-0.68;87.42
75629;BME280;64213;46.452;16.994;2022-12-17T18:42:53;101221.41;;;-0.77;87.80